createdAt,value
2022-12-16T00:00:08.633Z,17.50
2022-12-16T00:02:35.792Z,18.50
2022-12-16T00:05:02.878Z,18.42
2022-12-16T00:07:29.739Z,18.40
2022-12-16T00:09:56.490Z,18.23
2022-12-16T00:12:23.258Z,18.63
2022-12-16T00:14:49.993Z,18.08
2022-12-16T00:17:17.509Z,17.13
2022-12-16T00:19:44.178Z,17.45
2022-12-16T00:22:10.917Z,18.88
2022-12-16T00:24:37.607Z,18.27
2022-12-16T00:27:04.360Z,17.85
2022-12-16T00:29:31.062Z,17.65
2022-12-16T00:31:57.810Z,16.90
2022-12-16T00:34:24.535Z,17.67
2022-12-16T00:36:51.857Z,17.48
2022-12-16T00:39:19.081Z,17.35
2022-12-16T00:41:47.598Z,16.92
2022-12-16T00:44:14.317Z,17.85
2022-12-16T00:46:40.998Z,17.92
2022-12-16T00:49:07.713Z,16.50
2022-12-16T00:51:34.404Z,17.95
2022-12-16T00:54:01.166Z,16.75
2022-12-16T00:56:27.837Z,17.88
2022-12-16T00:58:54.814Z,17.60
2022-12-16T01:01:21.773Z,17.45
2022-12-16T01:03:48.600Z,17.30
2022-12-16T01:06:17.706Z,17.55
2022-12-16T01:08:48.459Z,16.55
2022-12-16T01:11:19.808Z,17.73
2022-12-16T01:13:50.251Z,16.77
2022-12-16T01:18:45.874Z,16.63
2022-12-16T01:21:14.505Z,17.13
2022-12-16T01:23:41.253Z,16.73
2022-12-16T01:26:08.077Z,17.75
2022-12-16T01:28:34.913Z,17.50
2022-12-16T01:31:02.109Z,17.45
2022-12-16T01:33:30.326Z,16.52
2022-12-16T01:36:05.929Z,16.83
2022-12-16T01:38:33.445Z,16.80
2022-12-16T01:41:00.229Z,16.75
2022-12-16T01:43:37.996Z,18.52
2022-12-16T01:46:21.715Z,17.50
2022-12-16T01:48:51.410Z,17.20
2022-12-16T01:51:33.956Z,17.45
2022-12-16T01:54:04.853Z,18.00
2022-12-16T01:56:34.718Z,18.27
2022-12-16T01:59:02.889Z,17.95
2022-12-16T02:01:29.985Z,18.65
2022-12-16T02:04:01.881Z,17.98
2022-12-16T02:06:30.055Z,18.77
2022-12-16T02:09:00.298Z,19.15
2022-12-16T02:12:14.691Z,17.48
2022-12-16T02:15:20.945Z,17.42
2022-12-16T02:17:59.941Z,16.92
2022-12-16T02:21:03.137Z,19.63
2022-12-16T02:23:42.956Z,19.35
2022-12-16T02:26:24.212Z,20.08
2022-12-16T02:29:07.723Z,18.90
2022-12-16T02:31:55.259Z,20.30
2022-12-16T02:34:37.143Z,21.15
2022-12-16T02:37:10.373Z,23.60
2022-12-16T02:39:52.057Z,21.02
2022-12-16T02:42:27.707Z,20.52
2022-12-16T02:45:01.494Z,19.80
2022-12-16T02:47:29.665Z,19.02
2022-12-16T02:49:56.790Z,19.48
2022-12-16T02:52:30.217Z,18.08
2022-12-16T02:55:00.641Z,18.35
2022-12-16T02:57:41.935Z,18.13
2022-12-16T03:00:15.827Z,19.73
2022-12-16T03:02:49.575Z,18.33
2022-12-16T03:05:28.868Z,19.45
2022-12-16T03:07:59.607Z,17.92
2022-12-16T03:10:32.615Z,18.73
2022-12-16T03:13:01.446Z,19.10
2022-12-16T03:15:33.041Z,19.15
2022-12-16T03:18:01.898Z,18.83
2022-12-16T03:20:35.741Z,18.45
2022-12-16T03:23:08.577Z,18.92
2022-12-16T03:25:38.764Z,18.48
2022-12-16T03:28:28.297Z,18.98
2022-12-16T03:31:10.720Z,18.42
2022-12-16T03:33:56.590Z,19.20
2022-12-16T03:36:26.278Z,18.40
2022-12-16T03:38:55.572Z,18.50
2022-12-16T03:41:24.440Z,18.25
2022-12-16T03:43:51.939Z,17.10
2022-12-16T03:46:18.903Z,18.33
2022-12-16T03:48:47.360Z,17.85
2022-12-16T03:51:14.222Z,18.63
2022-12-16T03:53:40.955Z,17.67
2022-12-16T03:56:07.694Z,18.83
2022-12-16T03:58:35.348Z,18.67
2022-12-16T04:01:02.159Z,18.27
2022-12-16T04:03:29.012Z,18.17
2022-12-16T04:05:55.871Z,18.08
2022-12-16T04:08:22.631Z,19.45
2022-12-16T04:11:11.921Z,18.00
2022-12-16T04:13:57.220Z,19.30
2022-12-16T04:16:46.105Z,17.25
2022-12-16T04:19:42.604Z,19.45
2022-12-16T04:22:33.562Z,17.85
2022-12-16T04:25:12.932Z,18.60
2022-12-16T04:27:39.678Z,19.38
2022-12-16T04:30:22.148Z,19.35
2022-12-16T04:33:17.736Z,17.58
2022-12-16T04:36:03.460Z,19.05
2022-12-16T04:38:49.331Z,19.30
2022-12-16T04:41:35.204Z,19.25
2022-12-16T04:44:20.988Z,18.02
2022-12-16T04:47:06.454Z,18.88
2022-12-16T04:49:51.699Z,17.77
2022-12-16T04:52:37.403Z,18.50
2022-12-16T04:55:23.127Z,18.95
2022-12-16T04:58:14.106Z,18.88
2022-12-16T05:01:00.709Z,18.02
2022-12-16T05:03:46.876Z,18.55
2022-12-16T05:06:33.262Z,17.73
2022-12-16T05:09:18.396Z,18.58
2022-12-16T05:12:03.858Z,18.75
2022-12-16T05:14:49.001Z,17.85
2022-12-16T05:17:34.379Z,18.58
2022-12-16T05:20:19.752Z,18.60
2022-12-16T05:23:04.998Z,19.52
2022-12-16T05:25:50.847Z,19.23
2022-12-16T05:28:36.091Z,19.35
2022-12-16T05:31:21.919Z,19.77
2022-12-16T05:34:07.471Z,18.63
2022-12-16T05:36:52.647Z,18.80
2022-12-16T05:39:38.037Z,19.45
2022-12-16T05:42:23.418Z,19.08
2022-12-16T05:45:08.767Z,18.23
2022-12-16T05:47:54.025Z,19.65
2022-12-16T05:50:39.085Z,19.55
2022-12-16T05:53:24.388Z,20.10
2022-12-16T05:56:09.534Z,20.83
2022-12-16T05:58:55.002Z,19.35
2022-12-16T06:01:41.109Z,20.63
2022-12-16T06:04:26.647Z,19.73
2022-12-16T06:07:11.997Z,19.67
2022-12-16T06:09:57.385Z,19.25
2022-12-16T06:12:42.544Z,19.05
2022-12-16T06:15:28.318Z,18.33
2022-12-16T06:18:13.576Z,21.17
2022-12-16T06:20:59.007Z,20.02
2022-12-16T06:23:44.283Z,19.95
2022-12-16T06:26:29.506Z,20.60
2022-12-16T06:29:14.543Z,21.02
2022-12-16T06:31:59.979Z,20.33
2022-12-16T06:34:45.533Z,19.17
2022-12-16T06:37:30.907Z,19.85
2022-12-16T06:40:16.346Z,20.55
2022-12-16T06:43:01.596Z,20.17
2022-12-16T06:45:46.947Z,20.00
2022-12-16T06:48:32.197Z,22.35
2022-12-16T06:51:17.659Z,20.23
2022-12-16T06:54:03.368Z,20.10
2022-12-16T06:56:48.953Z,19.48
2022-12-16T06:59:34.456Z,20.63
2022-12-16T07:02:19.828Z,20.92
2022-12-16T07:05:05.433Z,21.45
2022-12-16T07:07:50.711Z,20.85
2022-12-16T07:10:36.045Z,18.98
2022-12-16T07:13:21.337Z,20.30
2022-12-16T07:16:06.807Z,20.00
2022-12-16T07:18:52.328Z,20.27
2022-12-16T07:21:37.525Z,20.42
2022-12-16T07:24:23.449Z,22.10
2022-12-16T07:27:08.644Z,21.77
2022-12-16T07:29:54.140Z,21.95
2022-12-16T07:32:39.394Z,23.02
2022-12-16T07:35:36.935Z,22.25
2022-12-16T07:38:37.779Z,21.45
2022-12-16T07:45:29.647Z,19.70
2022-12-16T07:48:15.172Z,19.73
2022-12-16T07:51:00.804Z,21.15
2022-12-16T07:53:46.732Z,20.80
2022-12-16T07:56:32.060Z,21.25
2022-12-16T07:59:17.240Z,21.20
2022-12-16T08:02:02.765Z,20.98
2022-12-16T08:04:48.030Z,21.65
2022-12-16T08:07:33.297Z,21.00
2022-12-16T08:10:18.543Z,20.23
2022-12-16T08:13:03.881Z,20.45
2022-12-16T08:15:49.479Z,20.10
2022-12-16T08:18:34.660Z,21.05
2022-12-16T08:21:19.871Z,20.58
2022-12-16T08:24:05.080Z,20.95
2022-12-16T08:26:50.394Z,23.55
2022-12-16T08:29:44.981Z,21.02
2022-12-16T08:32:31.923Z,21.15
2022-12-16T08:35:17.031Z,22.00
2022-12-16T08:38:02.397Z,21.90
2022-12-16T08:40:48.122Z,20.85
2022-12-16T08:43:34.362Z,20.45
2022-12-16T08:46:20.664Z,21.58
2022-12-16T08:49:06.195Z,20.83
2022-12-16T08:51:51.583Z,20.30
2022-12-16T08:54:36.923Z,21.55
2022-12-16T08:57:22.175Z,21.60
2022-12-16T09:00:07.847Z,21.17
2022-12-16T09:02:53.581Z,21.00
2022-12-16T09:05:41.471Z,20.90
2022-12-16T09:08:27.025Z,21.33
2022-12-16T09:11:12.203Z,22.08
2022-12-16T09:13:57.640Z,21.73
2022-12-16T09:16:43.233Z,23.00
2022-12-16T09:19:29.177Z,22.25
2022-12-16T09:22:14.451Z,20.77
2022-12-16T09:24:59.747Z,21.48
2022-12-16T09:27:45.139Z,19.70
2022-12-16T09:30:30.887Z,19.90
2022-12-16T09:33:16.542Z,21.17
2022-12-16T09:36:02.136Z,20.67
2022-12-16T09:38:47.413Z,20.80
2022-12-16T09:41:55.502Z,20.45
2022-12-16T09:45:13.586Z,19.70
2022-12-16T09:48:18.621Z,19.95
2022-12-16T09:51:04.946Z,19.73
2022-12-16T09:53:54.918Z,20.65
2022-12-16T09:59:41.010Z,19.23
2022-12-16T10:02:36.144Z,19.77
2022-12-16T10:05:22.091Z,18.17
2022-12-16T10:08:19.217Z,19.40
2022-12-16T10:14:02.961Z,18.02
2022-12-16T10:17:21.505Z,18.65
2022-12-16T10:20:09.392Z,18.05
2022-12-16T10:23:14.301Z,19.02
2022-12-16T10:26:05.673Z,18.15
2022-12-16T10:29:22.770Z,18.65
2022-12-16T10:32:08.155Z,18.60
2022-12-16T10:34:56.052Z,17.70
2022-12-16T10:38:02.148Z,18.88
2022-12-16T10:40:52.423Z,18.85
2022-12-16T10:44:02.978Z,18.60
2022-12-16T10:46:53.283Z,17.90
2022-12-16T10:52:25.534Z,18.00
2022-12-16T10:55:26.070Z,17.70
2022-12-16T10:58:34.140Z,18.40
2022-12-16T11:01:39.993Z,17.73
2022-12-16T11:04:52.890Z,18.50
2022-12-16T11:07:56.690Z,18.05
2022-12-16T11:10:44.990Z,18.02
2022-12-16T11:13:38.273Z,17.90
2022-12-16T11:16:31.792Z,19.77
2022-12-16T11:19:17.652Z,18.05
2022-12-16T11:22:03.549Z,19.17
2022-12-16T11:24:49.119Z,18.15
2022-12-16T11:27:45.864Z,18.48
2022-12-16T11:30:41.894Z,18.60
2022-12-16T11:33:40.756Z,18.02
2022-12-16T11:36:33.637Z,18.63
2022-12-16T11:39:21.845Z,17.48
2022-12-16T11:42:10.930Z,17.90
2022-12-16T11:45:13.976Z,19.38
2022-12-16T11:48:11.377Z,18.25
2022-12-16T11:51:01.698Z,18.30
2022-12-16T11:54:15.655Z,18.83
2022-12-16T11:57:03.386Z,17.85
2022-12-16T11:59:58.833Z,18.83
2022-12-16T12:02:55.048Z,18.13
2022-12-16T12:05:55.866Z,17.40
2022-12-16T12:08:50.112Z,18.10
2022-12-16T12:11:55.602Z,18.38
2022-12-16T12:15:12.007Z,18.48
2022-12-16T12:18:11.339Z,17.70
2022-12-16T12:21:31.611Z,18.42
2022-12-16T12:24:33.834Z,18.52
2022-12-16T12:27:46.214Z,19.27
2022-12-16T12:30:39.545Z,20.33
2022-12-16T12:33:29.420Z,18.80
2022-12-16T12:36:54.250Z,18.75
2022-12-16T12:39:58.909Z,19.92
2022-12-16T12:42:59.806Z,18.92
2022-12-16T12:46:05.911Z,19.92
2022-12-16T12:49:07.313Z,19.88
2022-12-16T12:52:25.414Z,20.02
2022-12-16T12:55:40.817Z,19.80
2022-12-16T12:58:28.639Z,20.45
2022-12-16T13:01:16.622Z,19.60
2022-12-16T13:04:09.344Z,19.77
2022-12-16T13:06:56.117Z,19.38
2022-12-16T13:09:55.686Z,21.05
2022-12-16T13:12:44.670Z,18.45
2022-12-16T13:15:57.563Z,19.50
2022-12-16T13:18:47.115Z,19.63
2022-12-16T13:21:54.947Z,19.90
2022-12-16T13:24:42.009Z,18.85
2022-12-16T13:27:43.647Z,19.77
2022-12-16T13:30:29.195Z,19.02
2022-12-16T13:33:16.804Z,19.83
2022-12-16T13:36:17.197Z,19.55
2022-12-16T13:39:08.113Z,19.85
2022-12-16T13:45:00.883Z,20.17
2022-12-16T13:48:01.368Z,20.38
2022-12-16T13:51:05.106Z,20.00
2022-12-16T13:53:56.082Z,19.15
2022-12-16T13:56:56.651Z,19.80
2022-12-16T13:59:45.359Z,20.35
2022-12-16T14:02:54.651Z,20.73
2022-12-16T14:05:48.920Z,21.10
2022-12-16T14:08:38.286Z,21.13
2022-12-16T14:11:32.672Z,20.25
2022-12-16T14:14:26.774Z,21.60
2022-12-16T14:17:19.791Z,21.15
2022-12-16T14:20:47.582Z,21.50
2022-12-16T14:23:55.838Z,22.88
2022-12-16T14:26:39.114Z,21.27
2022-12-16T14:29:43.221Z,20.90
2022-12-16T14:32:49.621Z,22.50
2022-12-16T14:35:44.474Z,21.85
2022-12-16T14:38:43.450Z,23.50
2022-12-16T14:41:39.967Z,22.42
2022-12-16T14:44:55.597Z,21.17
2022-12-16T14:47:41.788Z,21.73
2022-12-16T14:50:48.286Z,21.95
2022-12-16T14:53:42.578Z,21.98
2022-12-16T14:56:35.107Z,21.55
2022-12-16T14:59:27.817Z,22.42
2022-12-16T15:02:16.090Z,21.67
2022-12-16T15:05:02.368Z,21.45
2022-12-16T15:07:54.632Z,21.67
2022-12-16T15:10:45.153Z,22.20
2022-12-16T15:13:36.894Z,21.33
2022-12-16T15:16:23.918Z,20.63
2022-12-16T15:19:18.356Z,22.35
2022-12-16T15:22:04.373Z,19.65
2022-12-16T15:24:55.151Z,21.02
2022-12-16T15:27:41.081Z,20.20
2022-12-16T15:31:06.499Z,20.10
2022-12-16T15:33:57.836Z,19.13
2022-12-16T15:36:47.537Z,20.60
2022-12-16T15:39:52.276Z,19.75
2022-12-16T15:42:41.658Z,20.13
2022-12-16T15:46:09.576Z,20.80
2022-12-16T15:48:56.371Z,20.98
2022-12-16T15:51:52.089Z,19.00
2022-12-16T15:54:40.516Z,19.15
2022-12-16T15:57:58.971Z,18.02
2022-12-16T16:00:47.433Z,17.92
2022-12-16T16:03:36.110Z,16.95
2022-12-16T16:06:22.599Z,18.63
2022-12-16T16:09:11.067Z,15.82
2022-12-16T16:12:16.387Z,18.73
2022-12-16T16:15:02.495Z,16.80
2022-12-16T16:17:48.353Z,16.63
2022-12-16T16:20:37.440Z,15.85
2022-12-16T16:23:24.161Z,15.48
2022-12-16T16:26:09.991Z,16.85
2022-12-16T16:28:55.346Z,18.73
2022-12-16T16:31:42.231Z,18.08
2022-12-16T16:34:41.731Z,18.92
2022-12-16T16:37:34.014Z,17.83
2022-12-16T16:40:23.350Z,16.83
2022-12-16T16:43:11.706Z,16.63
2022-12-16T16:46:17.292Z,15.73
2022-12-16T16:49:02.403Z,16.35
2022-12-16T16:51:48.954Z,15.00
2022-12-16T16:54:34.495Z,16.55
2022-12-16T16:57:22.397Z,15.82
2022-12-16T17:00:07.746Z,16.65
2022-12-16T17:02:53.192Z,17.75
2022-12-16T17:05:38.536Z,17.80
2022-12-16T17:08:23.919Z,17.38
2022-12-16T17:11:09.421Z,18.08
2022-12-16T17:13:54.880Z,17.48
2022-12-16T17:16:40.407Z,17.55
2022-12-16T17:19:25.736Z,19.90
2022-12-16T17:22:11.414Z,19.75
2022-12-16T17:24:58.150Z,20.40
2022-12-16T17:27:44.458Z,20.52
2022-12-16T17:30:45.169Z,20.55
2022-12-16T17:33:33.027Z,20.38
2022-12-16T17:36:18.806Z,20.30
2022-12-16T17:39:04.736Z,20.70
2022-12-16T17:41:51.859Z,24.23
2022-12-16T17:44:37.862Z,23.13
2022-12-16T17:47:25.676Z,19.60
2022-12-16T17:50:10.974Z,20.00
2022-12-16T17:52:56.332Z,20.90
2022-12-16T17:55:41.670Z,19.75
2022-12-16T17:58:37.532Z,19.75
2022-12-16T18:01:25.195Z,19.98
2022-12-16T18:04:10.939Z,24.02
2022-12-16T18:06:56.382Z,21.35
2022-12-16T18:09:41.914Z,24.20
2022-12-16T18:12:27.296Z,21.52
2022-12-16T18:15:12.512Z,20.88
2022-12-16T18:17:57.827Z,22.40
2022-12-16T18:20:42.970Z,22.13
2022-12-16T18:26:22.441Z,22.25
2022-12-16T18:29:08.356Z,23.98
2022-12-16T18:31:53.691Z,23.70
2022-12-16T18:34:41.946Z,25.92
2022-12-16T18:37:33.565Z,24.55
2022-12-16T18:40:19.017Z,26.20
2022-12-16T18:43:07.755Z,24.35
2022-12-16T18:46:03.454Z,26.35
2022-12-16T18:48:48.837Z,23.52
2022-12-16T18:51:34.243Z,21.17
2022-12-16T18:54:30.665Z,19.88
2022-12-16T18:57:16.045Z,21.67
2022-12-16T19:00:01.407Z,22.45
2022-12-16T19:05:34.017Z,21.27
2022-12-16T19:08:19.427Z,21.55
2022-12-16T19:11:04.851Z,21.55
2022-12-16T19:13:50.187Z,21.45
2022-12-16T19:16:35.462Z,21.80
2022-12-16T19:19:21.010Z,22.25
2022-12-16T19:22:06.825Z,21.17
2022-12-16T19:24:55.068Z,21.95
2022-12-16T19:27:42.235Z,21.27
2022-12-16T19:30:28.658Z,22.20
2022-12-16T19:33:14.134Z,21.40
2022-12-16T19:35:59.625Z,20.65
2022-12-16T19:38:48.067Z,22.30
2022-12-16T19:41:37.832Z,20.95
2022-12-16T19:44:26.015Z,21.40
2022-12-16T19:47:16.592Z,20.80
2022-12-16T19:50:02.317Z,18.95
2022-12-16T19:52:47.831Z,20.60
2022-12-16T19:55:35.438Z,20.55
2022-12-16T19:58:21.668Z,19.92
2022-12-16T20:01:07.376Z,22.52
2022-12-16T20:03:53.562Z,22.00
2022-12-16T20:06:42.123Z,22.55
2022-12-16T20:09:27.508Z,23.23
2022-12-16T20:12:17.746Z,22.90
2022-12-16T20:15:06.456Z,22.50
2022-12-16T20:17:51.786Z,21.05
2022-12-16T20:20:37.294Z,20.35
2022-12-16T20:23:24.642Z,19.75
2022-12-16T20:26:18.858Z,19.88
2022-12-16T20:29:05.402Z,17.95
2022-12-16T20:31:51.388Z,19.33
2022-12-16T20:34:37.397Z,19.38
2022-12-16T20:37:23.448Z,18.92
2022-12-16T20:40:09.376Z,20.20
2022-12-16T20:42:54.964Z,22.55
2022-12-16T20:45:41.710Z,22.67
2022-12-16T20:48:31.602Z,21.70
2022-12-16T20:54:28.966Z,21.13
2022-12-16T20:57:14.886Z,20.40
2022-12-16T21:00:00.457Z,19.83
2022-12-16T21:02:45.846Z,20.77
2022-12-16T21:05:31.167Z,20.10
2022-12-16T21:11:02.045Z,19.48
2022-12-16T21:16:33.920Z,17.75
2022-12-16T21:19:19.119Z,19.55
2022-12-16T21:24:50.172Z,20.20
2022-12-16T21:27:35.444Z,20.92
2022-12-16T21:33:09.917Z,18.70
2022-12-16T21:35:58.465Z,19.55
2022-12-16T21:38:43.947Z,20.33
2022-12-16T21:41:29.282Z,19.40
2022-12-16T21:47:02.971Z,18.13
2022-12-16T21:49:49.284Z,18.83
2022-12-16T21:52:35.431Z,19.63
2022-12-16T21:55:21.087Z,20.75
2022-12-16T21:58:09.524Z,19.60
2022-12-16T22:00:58.893Z,19.65
2022-12-16T22:03:52.208Z,18.95
2022-12-16T22:06:40.023Z,17.73
2022-12-16T22:09:28.741Z,19.42
2022-12-16T22:12:14.356Z,18.08
2022-12-16T22:15:03.276Z,19.85
2022-12-16T22:17:57.791Z,18.83
2022-12-16T22:20:43.696Z,20.30
2022-12-16T22:23:28.958Z,19.60
2022-12-16T22:29:00.659Z,16.20
2022-12-16T22:31:46.188Z,15.80
2022-12-16T22:34:31.445Z,15.73
2022-12-16T22:36:21.565Z,22.00
2022-12-16T22:37:16.661Z,15.10
2022-12-16T22:40:02.007Z,16.38
2022-12-16T22:42:47.313Z,18.48
2022-12-16T22:45:32.536Z,16.20
2022-12-16T22:48:17.775Z,16.05
2022-12-16T22:53:48.591Z,14.13
2022-12-16T22:56:33.741Z,15.20
2022-12-16T22:59:18.973Z,16.42
2022-12-16T23:02:04.338Z,14.27
2022-12-16T23:04:49.778Z,14.57
2022-12-16T23:07:34.964Z,14.30
2022-12-16T23:10:20.588Z,14.45
2022-12-16T23:13:05.981Z,12.82
2022-12-16T23:15:52.006Z,14.52
2022-12-16T23:18:37.387Z,12.93
2022-12-16T23:24:11.309Z,13.40
2022-12-16T23:26:56.557Z,12.73
2022-12-16T23:32:27.347Z,11.88
2022-12-16T23:35:12.714Z,13.15
2022-12-16T23:40:43.336Z,11.95
2022-12-16T23:43:28.909Z,12.20
2022-12-16T23:46:14.315Z,12.95
2022-12-16T23:48:59.612Z,11.10
2022-12-16T23:51:44.859Z,10.85
2022-12-16T23:54:29.999Z,11.93
2022-12-16T23:57:15.257Z,12.20
